Terminal Aerodrome Forecast
Issued by NWS Binghamton, NY

Home | Current Version | Previous Version | Text Only | Print | Product List | Glossary On
Versions: 1 2 3 4 5 6 7 8 9 10 11 12 13 14 15 16 17 18 19 20 21 22
111
FTUS41 KBGM 121738
TAFSYR
TAF
KSYR 121738Z 1218/1318 23012G22KT P6SM SCT045 BKN080
      TEMPO 1222/1302 -SHSN OVC045
     FM130200 25010KT P6SM -SHSN OVC040
      TEMPO 1302/1305 1 1/2SM -SHSN OVC025
     FM130500 30015G30KT 1 1/2SM -SN BLSN OVC025
      TEMPO 1305/1309 1/2SM SN OVC012=

USA.gov is the U.S. government's official web portal to all federal, state and local government web resources and services.